Time;durP1;ratioP1;P1;durP2;ratioP2;P2;SDS_P1;SDS_P2;PMS_P1;PMS_P2;Temp;Humidity;BMP_temperature;BMP_pressure;BME280_temperature;BME280_humidity;BME280_pressure;Samples;Min_cycle;Max_cycle;Signal;HPM_P1;HPM_P2
2020/12/12 00:01:41;;;;;;;6.70;4.95;;;;;11.30;98912.00;;;;5091685;28;20589;-77
2020/12/12 00:04:07;;;;;;;6.30;4.68;;;;;11.30;98921.00;;;;5092207;28;20197;-77
2020/12/12 00:06:35;;;;;;;5.55;4.13;;;;;11.30;98919.00;;;;5102488;28;20193;-77
2020/12/12 00:09:02;;;;;;;6.13;4.63;;;;;11.40;98913.00;;;;5099647;28;20593;-77
2020/12/12 00:11:28;;;;;;;7.75;4.65;;;;;11.40;98915.00;;;;5090189;28;20203;-77
2020/12/12 00:13:55;;;;;;;7.97;5.38;;;;;11.40;98915.00;;;;5100128;28;20194;-77
2020/12/12 00:16:22;;;;;;;8.15;5.00;;;;;11.40;98911.00;;;;5110871;28;21081;-77
2020/12/12 00:18:49;;;;;;;7.05;5.35;;;;;11.40;98915.00;;;;5103926;28;20205;-77
2020/12/12 00:21:21;;;;;;;6.82;4.97;;;;;11.40;98915.00;;;;5090862;28;20213;-77
2020/12/12 00:23:49;;;;;;;6.00;4.20;;;;;11.40;98912.00;;;;5097519;28;20186;-77
2020/12/12 00:26:19;;;;;;;6.93;4.93;;;;;11.40;98910.00;;;;5105402;28;20209;-77
2020/12/12 00:28:46;;;;;;;7.38;5.30;;;;;11.40;98914.00;;;;5089871;28;20237;-77
2020/12/12 00:31:16;;;;;;;7.07;5.28;;;;;11.40;98916.00;;;;5090219;28;20206;-77
2020/12/12 00:33:43;;;;;;;6.63;4.90;;;;;11.40;98916.00;;;;5096379;28;20190;-77
2020/12/12 00:36:09;;;;;;;7.95;5.13;;;;;11.40;98923.00;;;;5095509;28;20480;-77
2020/12/12 00:38:36;;;;;;;6.40;4.72;;;;;11.40;98926.00;;;;5106290;28;20194;-77
2020/12/12 00:41:04;;;;;;;6.35;4.57;;;;;11.40;98927.00;;;;5090184;28;20742;-76
2020/12/12 00:43:31;;;;;;;10.00;5.63;;;;;11.50;98931.00;;;;5100818;28;20202;-77
2020/12/12 00:45:58;;;;;;;6.63;4.60;;;;;11.50;98935.00;;;;5091954;28;20570;-77
2020/12/12 00:48:25;;;;;;;8.82;5.57;;;;;11.50;98930.00;;;;5089076;28;20208;-76
2020/12/12 00:50:51;;;;;;;7.35;5.25;;;;;11.50;98931.00;;;;5091165;28;20599;-77
2020/12/12 00:53:18;;;;;;;7.38;5.30;;;;;11.50;98925.00;;;;5101547;28;20185;-77
2020/12/12 00:55:45;;;;;;;6.97;5.18;;;;;11.50;98927.00;;;;5105982;28;21125;-77
2020/12/12 00:58:13;;;;;;;6.88;4.95;;;;;11.50;98933.00;;;;5101668;28;20232;-77
2020/12/12 01:00:39;;;;;;;6.70;4.78;;;;;11.50;98932.00;;;;5089770;28;20709;-76
2020/12/12 01:03:06;;;;;;;6.70;4.60;;;;;11.50;98932.00;;;;5093712;28;20201;-76
2020/12/12 01:05:33;;;;;;;6.45;4.68;;;;;11.50;98937.00;;;;5089593;28;20202;-77
2020/12/12 01:08:00;;;;;;;6.90;4.93;;;;;11.50;98937.00;;;;5106001;28;20204;-77
2020/12/12 01:10:27;;;;;;;5.88;4.47;;;;;11.50;98939.00;;;;5092608;28;20209;-77
2020/12/12 01:12:54;;;;;;;6.50;4.43;;;;;11.50;98941.00;;;;5104772;28;20186;-77
2020/12/12 01:15:22;;;;;;;8.75;5.88;;;;;11.60;98942.00;;;;5091830;28;20198;-77
2020/12/12 01:17:49;;;;;;;8.32;5.43;;;;;11.60;98940.00;;;;5096437;28;20617;-76
2020/12/12 01:20:16;;;;;;;9.30;5.97;;;;;11.60;98950.00;;;;5088357;28;20200;-77
2020/12/12 01:22:42;;;;;;;7.43;5.53;;;;;11.60;98952.00;;;;5089557;28;20199;-77
2020/12/12 01:25:09;;;;;;;6.95;4.85;;;;;11.60;98950.00;;;;5096827;28;20664;-77
2020/12/12 01:27:36;;;;;;;6.35;5.05;;;;;11.60;98952.00;;;;5094744;28;20565;-76
2020/12/12 01:30:03;;;;;;;7.85;5.38;;;;;11.60;98954.00;;;;5100440;28;20197;-77
2020/12/12 01:32:30;;;;;;;7.30;4.97;;;;;11.60;98948.00;;;;5101059;28;20194;-77
2020/12/12 01:34:57;;;;;;;7.45;5.07;;;;;11.60;98965.00;;;;5088718;28;20206;-77
2020/12/12 01:37:24;;;;;;;8.48;5.22;;;;;11.60;98956.00;;;;5093032;28;20222;-77
2020/12/12 01:39:51;;;;;;;8.02;5.45;;;;;11.60;98953.00;;;;5098129;28;20197;-76
2020/12/12 01:42:17;;;;;;;7.82;5.38;;;;;11.60;98953.00;;;;5100874;28;20668;-76
2020/12/12 01:44:44;;;;;;;7.00;5.18;;;;;11.60;98963.00;;;;5105469;28;20209;-77
2020/12/12 01:47:11;;;;;;;6.40;4.97;;;;;11.60;98961.00;;;;5090995;28;20186;-77
2020/12/12 01:49:39;;;;;;;7.68;5.25;;;;;11.60;98966.00;;;;5102909;28;20191;-77
2020/12/12 01:52:07;;;;;;;7.43;5.18;;;;;11.60;98965.00;;;;5094124;28;20198;-77
2020/12/12 01:54:34;;;;;;;6.60;4.95;;;;;11.60;98974.00;;;;5089072;28;20206;-77
2020/12/12 01:57:05;;;;;;;6.78;5.30;;;;;11.60;98974.00;;;;5089634;28;20230;-77
2020/12/12 01:59:32;;;;;;;7.43;5.38;;;;;11.60;98975.00;;;;5097528;28;20228;-77
2020/12/12 02:02:01;;;;;;;6.95;4.95;;;;;11.60;98982.00;;;;5090701;28;20660;-77
2020/12/12 02:04:30;;;;;;;7.55;4.88;;;;;11.60;98984.00;;;;5087567;28;20655;-77
2020/12/12 02:06:57;;;;;;;6.85;4.70;;;;;11.60;98981.00;;;;5088430;28;20217;-77
2020/12/12 02:09:24;;;;;;;7.32;4.95;;;;;11.60;98979.00;;;;5094234;28;20258;-77
2020/12/12 02:11:52;;;;;;;6.07;5.03;;;;;11.60;98979.00;;;;5098250;28;20571;-76
2020/12/12 02:14:18;;;;;;;5.22;3.90;;;;;11.60;98980.00;;;;5092870;28;20725;-77
2020/12/12 02:16:52;;;;;;;6.50;4.63;;;;;11.60;98986.00;;;;5088576;28;20226;-77
2020/12/12 02:19:19;;;;;;;5.90;4.35;;;;;11.60;98978.00;;;;5088803;28;20293;-77
2020/12/12 02:21:50;;;;;;;5.85;4.20;;;;;11.60;98986.00;;;;5090499;28;20197;-78
2020/12/12 02:24:17;;;;;;;5.85;4.53;;;;;11.60;98984.00;;;;5105244;28;20201;-77
2020/12/12 02:26:44;;;;;;;6.07;4.57;;;;;11.60;98985.00;;;;5101429;28;20201;-77
2020/12/12 02:29:11;;;;;;;7.30;5.05;;;;;11.70;98977.00;;;;5106514;28;20216;-77
2020/12/12 02:31:39;;;;;;;6.63;4.80;;;;;11.60;98984.00;;;;5104128;28;20753;-77
2020/12/12 02:34:06;;;;;;;5.68;4.60;;;;;11.60;98978.00;;;;5108984;28;20582;-77
2020/12/12 02:36:36;;;;;;;6.20;4.45;;;;;11.60;98985.00;;;;5106455;28;20233;-77
2020/12/12 02:39:06;;;;;;;6.15;4.70;;;;;11.70;98988.00;;;;5108495;28;20197;-76
2020/12/12 02:41:33;;;;;;;6.55;4.47;;;;;11.70;98978.00;;;;5104146;28;20201;-77
2020/12/12 02:44:00;;;;;;;5.28;4.00;;;;;11.70;98981.00;;;;5087186;28;20205;-77
2020/12/12 02:46:26;;;;;;;5.97;4.20;;;;;11.70;98984.00;;;;5094706;28;20209;-76
2020/12/12 02:48:53;;;;;;;7.05;5.10;;;;;11.70;98984.00;;;;5088819;28;20202;-77
2020/12/12 02:51:20;;;;;;;5.20;3.70;;;;;11.70;98987.00;;;;5087972;28;20209;-77
2020/12/12 02:53:47;;;;;;;6.15;4.25;;;;;11.70;98995.00;;;;5087510;28;20690;-77
2020/12/12 02:56:16;;;;;;;6.07;4.13;;;;;11.70;98994.00;;;;5092384;28;20225;-77
2020/12/12 02:58:44;;;;;;;5.60;4.03;;;;;11.70;98995.00;;;;5101251;28;20225;-77
2020/12/12 03:01:10;;;;;;;6.53;4.25;;;;;11.70;98997.00;;;;5088146;28;20214;-77
2020/12/12 03:03:37;;;;;;;4.85;3.67;;;;;11.70;99001.00;;;;5088212;28;20205;-77
2020/12/12 03:06:04;;;;;;;5.53;4.25;;;;;11.70;98993.00;;;;5095623;28;20201;-77
2020/12/12 03:08:31;;;;;;;5.15;3.80;;;;;11.70;98997.00;;;;5108677;28;20201;-77
2020/12/12 03:10:58;;;;;;;5.93;4.40;;;;;11.70;98998.00;;;;5096516;28;20203;-77
2020/12/12 03:13:25;;;;;;;6.05;4.63;;;;;11.70;99002.00;;;;5087363;28;20198;-77
2020/12/12 03:15:52;;;;;;;4.85;3.85;;;;;11.70;99003.00;;;;5084342;28;20210;-77
2020/12/12 03:18:19;;;;;;;5.47;3.78;;;;;11.70;99001.00;;;;5087999;28;20202;-76
2020/12/12 03:20:45;;;;;;;4.88;3.80;;;;;11.70;98997.00;;;;5101285;28;20205;-77
2020/12/12 03:23:12;;;;;;;6.10;4.35;;;;;11.80;98999.00;;;;5108011;28;20202;-77
2020/12/12 03:25:39;;;;;;;5.60;4.18;;;;;11.70;99007.00;;;;5103313;28;20566;-76
2020/12/12 03:28:06;;;;;;;5.20;3.72;;;;;11.80;99008.00;;;;5095075;28;20201;-77
2020/12/12 03:30:35;;;;;;;5.53;4.07;;;;;11.80;99007.00;;;;5088041;28;20579;-76
2020/12/12 03:33:02;;;;;;;6.05;4.07;;;;;11.80;99005.00;;;;5088002;28;20551;-77
2020/12/12 03:35:29;;;;;;;5.13;4.03;;;;;11.80;99006.00;;;;5096836;28;20663;-77
2020/12/12 03:37:56;;;;;;;6.47;4.93;;;;;11.80;99011.00;;;;5107972;28;20228;-77
2020/12/12 03:40:23;;;;;;;4.85;3.80;;;;;11.80;99009.00;;;;5099062;28;21064;-77
2020/12/12 03:42:51;;;;;;;6.78;4.53;;;;;11.80;99009.00;;;;5087339;28;20668;-77
2020/12/12 03:45:18;;;;;;;5.45;3.85;;;;;11.80;99015.00;;;;5098700;28;20285;-77
2020/12/12 03:47:47;;;;;;;4.82;3.95;;;;;11.80;99022.00;;;;5107540;28;20574;-77
2020/12/12 03:50:14;;;;;;;5.78;4.28;;;;;11.80;99017.00;;;;5096381;28;20621;-77
2020/12/12 03:52:40;;;;;;;6.13;4.65;;;;;11.80;99021.00;;;;5088115;28;20202;-77
2020/12/12 03:55:07;;;;;;;4.75;3.53;;;;;11.80;99018.00;;;;5096716;28;20665;-77
2020/12/12 03:57:34;;;;;;;7.28;4.68;;;;;11.80;99022.00;;;;5107396;28;20228;-77
2020/12/12 04:00:01;;;;;;;5.22;4.00;;;;;11.80;99026.00;;;;5099193;28;20206;-77
2020/12/12 04:02:28;;;;;;;5.43;4.28;;;;;11.80;99032.00;;;;5088291;28;20205;-77
2020/12/12 04:04:55;;;;;;;7.07;4.85;;;;;11.80;99030.00;;;;5097067;28;20663;-77
2020/12/12 04:07:22;;;;;;;6.32;4.60;;;;;11.80;99033.00;;;;5104671;28;20202;-77
2020/12/12 04:09:49;;;;;;;6.30;4.40;;;;;11.80;99030.00;;;;5111891;28;20621;-77
2020/12/12 04:12:15;;;;;;;5.85;3.90;;;;;11.80;99036.00;;;;5111305;28;20519;-77
2020/12/12 04:14:42;;;;;;;5.65;3.80;;;;;11.80;99038.00;;;;5096750;28;20210;-77
2020/12/12 04:17:09;;;;;;;6.70;4.07;;;;;11.80;99034.00;;;;5109716;28;20232;-76
2020/12/12 04:19:35;;;;;;;6.97;4.90;;;;;11.80;99038.00;;;;5110789;28;20611;-77
2020/12/12 04:22:03;;;;;;;4.97;4.20;;;;;11.80;99041.00;;;;5088768;28;20206;-77
2020/12/12 04:24:30;;;;;;;6.10;4.22;;;;;11.80;99042.00;;;;5091157;28;20601;-76
2020/12/12 04:26:57;;;;;;;6.25;4.50;;;;;11.80;99042.00;;;;5107485;28;20243;-77
2020/12/12 04:29:24;;;;;;;5.60;4.05;;;;;11.80;99040.00;;;;5090589;28;20210;-77
2020/12/12 04:31:50;;;;;;;6.07;4.45;;;;;11.90;99039.00;;;;5105413;28;20194;-77
2020/12/12 04:34:17;;;;;;;5.63;4.18;;;;;11.90;99050.00;;;;5110903;28;20189;-77
2020/12/12 04:36:44;;;;;;;5.00;4.03;;;;;11.90;99053.00;;;;5105473;28;20226;-77
2020/12/12 04:39:12;;;;;;;5.75;4.47;;;;;11.90;99050.00;;;;5090570;28;20195;-77
2020/12/12 04:41:42;;;;;;;6.25;4.55;;;;;11.90;99048.00;;;;5093714;28;20222;-77
2020/12/12 04:44:08;;;;;;;5.53;4.13;;;;;11.90;99054.00;;;;5090955;28;20221;-77
2020/12/12 04:46:37;;;;;;;5.63;4.22;;;;;11.90;99058.00;;;;5103110;28;20228;-77
2020/12/12 04:49:04;;;;;;;5.55;4.32;;;;;11.90;99056.00;;;;5095190;28;20216;-77
2020/12/12 04:51:31;;;;;;;8.50;5.07;;;;;11.90;99068.00;;;;5100971;28;20190;-77
2020/12/12 04:53:59;;;;;;;5.72;4.03;;;;;11.90;99067.00;;;;5111055;28;20197;-77
2020/12/12 04:56:27;;;;;;;6.57;4.20;;;;;11.90;99064.00;;;;5109577;28;20221;-78
2020/12/12 04:58:54;;;;;;;7.10;4.85;;;;;12.00;99067.00;;;;5098776;28;20238;-77
2020/12/12 05:01:21;;;;;;;4.88;3.78;;;;;12.00;99062.00;;;;5090267;28;20202;-77
2020/12/12 05:03:48;;;;;;;6.20;4.45;;;;;12.00;99068.00;;;;5090068;28;20202;-77
2020/12/12 05:06:15;;;;;;;6.07;4.03;;;;;12.00;99068.00;;;;5093935;28;20194;-77
2020/12/12 05:08:41;;;;;;;5.80;4.35;;;;;12.00;99067.00;;;;5110482;28;20194;-77
2020/12/12 05:11:08;;;;;;;6.10;4.35;;;;;12.00;99068.00;;;;5108301;28;20194;-77
2020/12/12 05:13:36;;;;;;;5.72;4.28;;;;;12.00;99080.00;;;;5109750;28;20198;-77
2020/12/12 05:16:03;;;;;;;5.88;4.10;;;;;12.00;99071.00;;;;5106221;28;20694;-77
2020/12/12 05:18:29;;;;;;;5.80;4.47;;;;;12.00;99077.00;;;;5089292;28;20225;-77
2020/12/12 05:20:56;;;;;;;5.78;3.85;;;;;12.00;99070.00;;;;5081394;28;20190;-77
2020/12/12 05:23:24;;;;;;;4.75;4.05;;;;;12.00;99081.00;;;;5090023;28;20221;-77
2020/12/12 05:25:53;;;;;;;5.50;4.03;;;;;12.00;99082.00;;;;5089266;28;20217;-77
2020/12/12 05:28:22;;;;;;;4.95;4.05;;;;;12.00;99086.00;;;;5090904;28;20244;-77
2020/12/12 05:30:51;;;;;;;5.70;4.30;;;;;12.00;99090.00;;;;5095699;28;20201;-77
2020/12/12 05:33:21;;;;;;;7.10;4.28;;;;;12.00;99089.00;;;;5094887;28;20844;-78
2020/12/12 05:35:48;;;;;;;9.50;5.00;;;;;12.00;99093.00;;;;5096130;28;20200;-78
2020/12/12 05:38:15;;;;;;;5.32;3.63;;;;;12.00;99090.00;;;;5090195;28;20225;-79
2020/12/12 05:40:44;;;;;;;5.80;4.20;;;;;12.00;99093.00;;;;5099868;28;20204;-79
2020/12/12 05:43:12;;;;;;;5.90;3.90;;;;;12.00;99096.00;;;;5105328;28;20194;-78
2020/12/12 05:45:40;;;;;;;5.00;3.72;;;;;12.00;99094.00;;;;5089194;28;20194;-78
2020/12/12 05:48:09;;;;;;;5.07;3.70;;;;;12.00;99099.00;;;;5089854;28;20208;-78
2020/12/12 05:50:36;;;;;;;5.75;3.75;;;;;12.10;99108.00;;;;5092171;28;20194;-78
2020/12/12 05:53:04;;;;;;;6.53;4.43;;;;;12.10;99106.00;;;;5089550;28;20209;-77
2020/12/12 05:55:32;;;;;;;4.80;3.17;;;;;12.10;99114.00;;;;5089384;28;20214;-78
2020/12/12 05:58:00;;;;;;;6.65;4.18;;;;;12.10;99111.00;;;;5088958;28;20254;-78
2020/12/12 06:00:29;;;;;;;5.40;4.03;;;;;12.10;99113.00;;;;5091026;28;20869;-78
2020/12/12 06:02:57;;;;;;;7.53;4.32;;;;;12.10;99110.00;;;;5089341;28;20194;-78
2020/12/12 06:05:27;;;;;;;5.85;3.88;;;;;12.10;99120.00;;;;5094817;28;20201;-77
2020/12/12 06:07:56;;;;;;;5.95;4.13;;;;;12.10;99124.00;;;;5089241;28;20206;-77
2020/12/12 06:10:28;;;;;;;5.85;3.92;;;;;12.10;99125.00;;;;5089063;28;20205;-78
2020/12/12 06:12:58;;;;;;;6.10;4.43;;;;;12.10;99129.00;;;;5090777;28;20210;-77
2020/12/12 06:15:36;;;;;;;6.40;4.10;;;;;12.00;99136.00;;;;5108101;28;20270;-78
2020/12/12 06:18:26;;;;;;;7.18;4.50;;;;;12.00;99136.00;;;;5068390;28;20237;-77
2020/12/12 06:20:54;;;;;;;6.40;4.50;;;;;12.10;99135.00;;;;5081563;28;20313;-78
2020/12/12 06:23:21;;;;;;;6.88;3.88;;;;;12.10;99135.00;;;;5088337;28;20581;-77
2020/12/12 06:25:48;;;;;;;6.70;4.72;;;;;12.10;99144.00;;;;5089502;28;20198;-77
2020/12/12 06:28:19;;;;;;;7.00;4.93;;;;;12.10;99147.00;;;;5087134;28;20190;-77
2020/12/12 06:30:46;;;;;;;6.88;4.22;;;;;12.10;99141.00;;;;5099630;28;20212;-77
2020/12/12 06:33:13;;;;;;;5.75;3.72;;;;;12.20;99154.00;;;;5108809;28;20709;-77
2020/12/12 06:35:40;;;;;;;7.55;4.63;;;;;12.20;99163.00;;;;5093850;28;20205;-77
2020/12/12 06:38:25;;;;;;;7.15;5.28;;;;;12.10;99162.00;;;;5087861;28;20218;-77
2020/12/12 06:40:54;;;;;;;9.13;4.95;;;;;12.20;99169.00;;;;5086859;28;21034;-77
2020/12/12 06:43:32;;;;;;;8.45;4.88;;;;;12.10;99172.00;;;;5091050;28;20190;-77
2020/12/12 06:46:01;;;;;;;7.82;4.82;;;;;12.20;99173.00;;;;5093815;28;20202;-77
2020/12/12 06:48:29;;;;;;;7.07;4.22;;;;;12.20;99177.00;;;;5091581;28;20205;-77
2020/12/12 06:50:56;;;;;;;7.97;4.18;;;;;12.20;99178.00;;;;5090740;28;20198;-77
2020/12/12 06:53:26;;;;;;;8.55;4.65;;;;;12.20;99184.00;;;;5088818;28;20198;-77
2020/12/12 06:56:10;;;;;;;8.93;4.95;;;;;12.20;99182.00;;;;5081943;28;20212;-77
2020/12/12 06:58:37;;;;;;;9.98;4.35;;;;;12.20;99184.00;;;;5086911;28;20237;-77
2020/12/12 07:01:32;;;;;;;8.18;4.65;;;;;12.10;99197.00;;;;5091176;28;20225;-77
2020/12/12 07:04:01;;;;;;;6.93;4.43;;;;;12.20;99193.00;;;;5031326;28;20201;-77
2020/12/12 07:06:28;;;;;;;6.72;4.28;;;;;12.20;99192.00;;;;5094007;28;20216;-77
2020/12/12 07:09:01;;;;;;;8.05;4.78;;;;;12.20;99202.00;;;;5087300;28;20293;-77
2020/12/12 07:11:28;;;;;;;7.07;4.43;;;;;12.30;99208.00;;;;5087858;28;20214;-77
2020/12/12 07:13:55;;;;;;;6.95;4.32;;;;;12.30;99201.00;;;;5087559;28;21275;-78
2020/12/12 07:16:22;;;;;;;5.75;4.03;;;;;12.30;99204.00;;;;5085857;28;20198;-78
2020/12/12 07:18:49;;;;;;;7.25;4.47;;;;;12.30;99211.00;;;;5086571;28;20222;-77
2020/12/12 07:21:17;;;;;;;7.20;4.35;;;;;12.30;99207.00;;;;5090277;28;20251;-78
2020/12/12 07:23:44;;;;;;;7.60;5.05;;;;;12.30;99214.00;;;;5091795;28;20281;-78
2020/12/12 07:26:12;;;;;;;6.75;4.20;;;;;12.30;99218.00;;;;5095733;28;20203;-78
2020/12/12 07:28:39;;;;;;;5.40;4.22;;;;;12.30;99225.00;;;;5087941;28;20198;-78
2020/12/12 07:31:06;;;;;;;7.47;4.82;;;;;12.40;99228.00;;;;5090439;28;20213;-78
2020/12/12 07:33:33;;;;;;;6.88;4.72;;;;;12.40;99229.00;;;;5092969;28;20256;-78
2020/12/12 07:36:00;;;;;;;7.22;4.22;;;;;12.40;99235.00;;;;5081586;28;20198;-77
2020/12/12 07:38:28;;;;;;;6.35;4.30;;;;;12.40;99238.00;;;;5088868;28;20228;-77
2020/12/12 07:40:55;;;;;;;6.82;4.57;;;;;12.40;99247.00;;;;5088605;28;20289;-77
2020/12/12 07:43:22;;;;;;;6.88;3.97;;;;;12.40;99241.00;;;;5091633;28;20575;-78
2020/12/12 07:45:58;;;;;;;6.25;4.40;;;;;12.40;99248.00;;;;5099709;28;20202;-78
2020/12/12 07:48:25;;;;;;;5.78;4.35;;;;;12.40;99251.00;;;;5091308;28;20209;-78
2020/12/12 07:50:51;;;;;;;7.50;3.97;;;;;12.40;99264.00;;;;5103587;28;20194;-77
2020/12/12 07:53:19;;;;;;;9.55;4.53;;;;;12.40;99269.00;;;;5086558;28;20199;-77
2020/12/12 07:55:55;;;;;;;9.85;4.63;;;;;12.40;99268.00;;;;5082124;28;20267;-78
2020/12/12 07:58:25;;;;;;;6.93;4.03;;;;;12.40;99271.00;;;;5085994;28;20993;-78
2020/12/12 08:00:59;;;;;;;6.30;4.10;;;;;12.40;99267.00;;;;5080995;28;20289;-77
2020/12/12 08:03:26;;;;;;;5.55;4.15;;;;;12.50;99269.00;;;;5095133;28;20198;-78
2020/12/12 08:06:04;;;;;;;6.75;4.32;;;;;12.40;99275.00;;;;5087384;28;20202;-78
2020/12/12 08:08:31;;;;;;;5.55;3.85;;;;;12.50;99279.00;;;;5096825;28;20194;-78
2020/12/12 08:10:59;;;;;;;6.68;4.40;;;;;12.50;99273.00;;;;5091697;28;20209;-78
2020/12/12 08:13:28;;;;;;;6.05;4.15;;;;;12.50;99284.00;;;;5094220;28;20195;-78
2020/12/12 08:16:06;;;;;;;7.53;4.05;;;;;12.50;99288.00;;;;5090488;28;20231;-77
2020/12/12 08:18:32;;;;;;;6.05;4.07;;;;;12.50;99292.00;;;;5096631;28;20922;-78
2020/12/12 08:21:10;;;;;;;6.45;4.60;;;;;12.50;99304.00;;;;5102910;28;20197;-78
2020/12/12 08:23:38;;;;;;;4.75;3.47;;;;;12.60;99296.00;;;;5088734;28;20201;-77
2020/12/12 08:26:06;;;;;;;6.55;4.10;;;;;12.60;99297.00;;;;5095910;28;20213;-78
2020/12/12 08:28:35;;;;;;;7.30;4.97;;;;;12.60;99297.00;;;;5093726;28;20683;-78
2020/12/12 08:31:12;;;;;;;8.07;4.55;;;;;12.50;99311.00;;;;5090036;28;20632;-77
2020/12/12 08:33:39;;;;;;;7.75;4.72;;;;;12.60;99317.00;;;;5099157;28;20226;-78
2020/12/12 08:36:14;;;;;;;7.22;4.53;;;;;12.60;99322.00;;;;5088904;28;20202;-79
2020/12/12 08:38:41;;;;;;;9.25;4.22;;;;;12.60;99326.00;;;;5086270;28;20226;-77
2020/12/12 08:41:12;;;;;;;8.05;4.70;;;;;12.60;99324.00;;;;5090265;28;20194;-78
2020/12/12 08:43:43;;;;;;;7.57;4.72;;;;;12.70;99330.00;;;;5094673;28;20185;-77
2020/12/12 08:46:13;;;;;;;7.93;5.22;;;;;12.70;99329.00;;;;5093202;28;20225;-78
2020/12/12 08:48:39;;;;;;;7.80;4.85;;;;;12.70;99339.00;;;;5094192;28;20207;-77
2020/12/12 08:51:07;;;;;;;7.35;4.30;;;;;12.70;99333.00;;;;5097205;28;20215;-78
2020/12/12 08:53:36;;;;;;;8.82;5.18;;;;;12.70;99334.00;;;;5103326;28;20235;-78
2020/12/12 08:56:11;;;;;;;10.88;5.75;;;;;12.70;99339.00;;;;5106043;28;20214;-78
2020/12/12 08:58:41;;;;;;;11.60;5.20;;;;;12.80;99344.00;;;;5091657;28;20233;-78
2020/12/12 09:01:30;;;;;;;11.00;5.15;;;;;12.70;99344.00;;;;5089198;28;20196;-78
2020/12/12 09:03:59;;;;;;;9.70;5.18;;;;;12.80;99351.00;;;;5074667;28;20310;-78
2020/12/12 09:06:27;;;;;;;8.02;4.75;;;;;12.90;99359.00;;;;5110098;28;20205;-78
2020/12/12 09:09:09;;;;;;;10.70;5.00;;;;;12.80;99354.00;;;;5109068;28;20284;-79
2020/12/12 09:11:37;;;;;;;8.63;4.63;;;;;12.90;99365.00;;;;5092349;28;20190;-78
2020/12/12 09:14:05;;;;;;;8.57;4.50;;;;;12.90;99367.00;;;;5098934;28;20267;-80
2020/12/12 09:16:32;;;;;;;7.38;4.70;;;;;13.00;99368.00;;;;5097176;28;20202;-79
2020/12/12 09:18:59;;;;;;;9.73;6.15;;;;;13.00;99374.00;;;;5093990;28;20225;-78
2020/12/12 09:21:26;;;;;;;15.57;5.35;;;;;13.00;99372.00;;;;5101144;28;20191;-78
2020/12/12 09:23:53;;;;;;;9.32;4.45;;;;;13.00;99376.00;;;;5090463;28;20201;-80
2020/12/12 09:26:20;;;;;;;9.57;5.25;;;;;13.10;99379.00;;;;5075908;28;20851;-79
2020/12/12 09:28:47;;;;;;;9.13;5.05;;;;;13.10;99384.00;;;;5095570;28;20643;-78
2020/12/12 09:31:16;;;;;;;8.65;5.28;;;;;13.10;99390.00;;;;5089697;28;20209;-79
2020/12/12 09:33:43;;;;;;;8.73;5.05;;;;;13.10;99386.00;;;;5092641;28;20658;-79
2020/12/12 09:36:11;;;;;;;12.05;6.18;;;;;13.20;99391.00;;;;5108091;28;20204;-80
2020/12/12 09:38:38;;;;;;;8.60;5.22;;;;;13.20;99401.00;;;;5105277;28;20667;-79
2020/12/12 09:41:05;;;;;;;12.75;5.13;;;;;13.20;99404.00;;;;5089461;28;20198;-79
2020/12/12 09:43:32;;;;;;;12.32;5.63;;;;;13.20;99404.00;;;;5091532;28;20313;-78
2020/12/12 09:45:58;;;;;;;7.93;5.20;;;;;13.30;99411.00;;;;5105654;28;20193;-78
2020/12/12 09:48:26;;;;;;;9.15;5.40;;;;;13.30;99407.00;;;;5092915;28;20210;-78
2020/12/12 09:50:53;;;;;;;7.43;5.38;;;;;13.30;99418.00;;;;5095327;28;20559;-78
2020/12/12 09:53:20;;;;;;;9.75;5.50;;;;;13.30;99415.00;;;;5091811;28;20611;-81
2020/12/12 09:55:46;;;;;;;8.95;4.55;;;;;13.40;99425.00;;;;5092947;28;20229;-79
2020/12/12 09:58:14;;;;;;;12.93;5.95;;;;;13.40;99421.00;;;;5095805;28;20225;-79
2020/12/12 10:00:42;;;;;;;11.27;6.13;;;;;13.40;99425.00;;;;5090210;28;20217;-79
2020/12/12 10:03:08;;;;;;;9.23;5.68;;;;;13.40;99433.00;;;;5087974;28;20289;-79
2020/12/12 10:05:37;;;;;;;8.40;5.63;;;;;13.50;99430.00;;;;5088475;28;20213;-78
2020/12/12 10:08:04;;;;;;;10.98;5.72;;;;;13.50;99435.00;;;;5075737;28;20323;-78
2020/12/12 10:10:32;;;;;;;10.32;5.13;;;;;13.50;99443.00;;;;5070962;28;20206;-79
2020/12/12 10:12:59;;;;;;;12.38;6.22;;;;;13.50;99431.00;;;;5104880;28;20198;-79
2020/12/12 10:15:26;;;;;;;9.52;5.47;;;;;13.60;99440.00;;;;5108297;28;20201;-79
2020/12/12 10:17:54;;;;;;;9.93;5.85;;;;;13.60;99439.00;;;;5103154;28;20253;-78
2020/12/12 10:20:21;;;;;;;8.50;5.15;;;;;13.60;99446.00;;;;5088541;28;20194;-77
2020/12/12 10:22:50;;;;;;;20.88;12.60;;;;;13.60;99457.00;;;;5101235;28;20443;-79
2020/12/12 10:25:17;;;;;;;20.13;12.00;;;;;13.80;99454.00;;;;5090918;28;20436;-78
2020/12/12 10:27:44;;;;;;;13.45;7.25;;;;;13.90;99452.00;;;;5082825;28;20197;-77
2020/12/12 10:30:12;;;;;;;9.60;6.18;;;;;13.90;99452.00;;;;5083418;28;20198;-77
2020/12/12 10:32:39;;;;;;;11.75;6.85;;;;;13.90;99464.00;;;;5095728;28;20198;-78
2020/12/12 10:35:08;;;;;;;8.80;5.18;;;;;13.90;99451.00;;;;5084812;28;20205;-79
2020/12/12 10:37:35;;;;;;;11.00;5.78;;;;;14.00;99459.00;;;;5085601;28;20210;-79
2020/12/12 10:40:10;;;;;;;10.38;5.47;;;;;14.00;99462.00;;;;5087198;28;20213;-78
2020/12/12 10:42:37;;;;;;;10.50;5.45;;;;;14.00;99470.00;;;;5071484;28;20301;-79
2020/12/12 10:45:04;;;;;;;13.43;7.63;;;;;14.10;99463.00;;;;5088852;28;20200;-78
2020/12/12 10:47:31;;;;;;;15.68;7.10;;;;;14.10;99458.00;;;;5097703;28;20198;-78
2020/12/12 10:49:58;;;;;;;10.50;5.75;;;;;14.20;99469.00;;;;5091808;28;20209;-78
2020/12/12 10:52:25;;;;;;;11.75;6.70;;;;;14.20;99462.00;;;;5097580;28;20213;-79
2020/12/12 10:54:52;;;;;;;11.07;5.57;;;;;14.30;99470.00;;;;5088521;28;20568;-79
2020/12/12 10:57:19;;;;;;;10.43;6.60;;;;;14.30;99467.00;;;;5090430;28;20295;-79
2020/12/12 10:59:46;;;;;;;10.55;5.82;;;;;14.40;99472.00;;;;5093663;28;20746;-79
2020/12/12 11:02:14;;;;;;;14.93;6.93;;;;;14.50;99472.00;;;;5091859;28;20683;-79
2020/12/12 11:04:42;;;;;;;13.73;6.07;;;;;14.50;99476.00;;;;5099936;28;20190;-79
2020/12/12 11:07:09;;;;;;;13.50;6.47;;;;;14.50;99479.00;;;;5088893;28;20202;-79
2020/12/12 11:09:36;;;;;;;13.43;6.63;;;;;14.60;99475.00;;;;5089589;28;20197;-79
2020/12/12 11:12:03;;;;;;;11.75;6.07;;;;;14.60;99480.00;;;;5081509;28;20206;-79
2020/12/12 11:14:33;;;;;;;9.25;5.25;;;;;14.60;99479.00;;;;5094673;28;20579;-80
2020/12/12 11:17:00;;;;;;;12.35;6.30;;;;;14.60;99481.00;;;;5094106;28;20565;-80
2020/12/12 11:19:27;;;;;;;10.82;6.45;;;;;14.70;99484.00;;;;5099190;28;20198;-80
2020/12/12 11:21:55;;;;;;;9.60;6.20;;;;;14.60;99487.00;;;;5088454;28;20213;-79
2020/12/12 11:24:22;;;;;;;12.70;6.20;;;;;14.70;99487.00;;;;5092432;28;20209;-79
2020/12/12 11:26:50;;;;;;;11.15;6.60;;;;;14.70;99490.00;;;;5107869;28;20190;-78
2020/12/12 11:29:16;;;;;;;13.05;6.85;;;;;14.70;99487.00;;;;5094120;28;20205;-80
2020/12/12 11:31:47;;;;;;;12.43;7.28;;;;;14.70;99495.00;;;;5106561;28;20652;-80
2020/12/12 11:34:18;;;;;;;19.40;7.25;;;;;14.70;99496.00;;;;5114880;28;20280;-80
2020/12/12 11:37:05;;;;;;;15.43;6.38;;;;;14.70;99496.00;;;;5113362;27;20947;-80
2020/12/12 11:39:36;;;;;;;16.30;6.57;;;;;14.70;99496.00;;;;5107409;27;20200;-80
2020/12/12 11:42:27;;;;;;;13.32;6.63;;;;;14.70;99495.00;;;;5093663;28;20285;-80
2020/12/12 11:45:11;;;;;;;12.15;6.13;;;;;14.70;99491.00;;;;5113159;27;20239;-80
2020/12/12 11:47:41;;;;;;;13.20;6.43;;;;;14.70;99499.00;;;;5097992;27;20203;-80
2020/12/12 11:50:08;;;;;;;10.18;5.72;;;;;14.70;99502.00;;;;5111722;28;20204;-80
2020/12/12 11:52:37;;;;;;;14.15;7.00;;;;;14.80;99509.00;;;;5100390;28;20190;-81
2020/12/12 11:55:04;;;;;;;12.07;6.72;;;;;14.80;99512.00;;;;5104436;28;20217;-81
2020/12/12 11:57:31;;;;;;;11.93;6.43;;;;;14.80;99505.00;;;;5098085;28;20205;-80
2020/12/12 12:00:02;;;;;;;15.48;7.40;;;;;14.80;99517.00;;;;5098200;28;20252;-81
2020/12/12 12:02:29;;;;;;;12.43;6.60;;;;;14.80;99521.00;;;;5098424;28;20198;-80
2020/12/12 12:04:57;;;;;;;11.30;6.05;;;;;14.80;99520.00;;;;5106012;28;20201;-79
2020/12/12 12:07:23;;;;;;;12.68;6.82;;;;;14.80;99535.00;;;;5094533;28;20288;-80
2020/12/12 12:09:58;;;;;;;13.25;6.47;;;;;14.80;99534.00;;;;5096457;28;20197;-80
2020/12/12 12:12:25;;;;;;;12.73;6.75;;;;;14.90;99536.00;;;;5112222;28;20604;-79
2020/12/12 12:14:51;;;;;;;11.75;5.82;;;;;14.80;99537.00;;;;5098764;28;20197;-79
2020/12/12 12:17:18;;;;;;;9.77;5.18;;;;;14.80;99538.00;;;;5096412;27;20210;-80
2020/12/12 12:19:45;;;;;;;13.77;6.47;;;;;14.80;99537.00;;;;5093631;28;20198;-79
2020/12/12 12:22:12;;;;;;;9.57;6.03;;;;;14.90;99547.00;;;;5093962;28;20194;-79